Terminal Aerodrome Forecast
Issued by NWS

Home | Current Version | Previous Version | Text Only | Print | Product List | Glossary Off
Versions: 1 2 3 4 5 6 7 8 9 10 11 12 13 14 15 16 17 18 19 20

000
FTUS43 KABR 271723
TAFMBG
TAF
KMBG 271723Z 2718/2818 17028G36KT P6SM SKC
     FM280000 16019G27KT P6SM BKN150
     FM280100 16016G24KT P6SM VCTS BKN150CB
     FM280300 14011KT P6SM -SHRA VCTS BKN090CB
     FM280500 17010KT P6SM BKN200
     FM281200 32013G21KT P6SM SCT200=

USA.gov is the U.S. government's official web portal to all federal, state and local government web resources and services.